createdAt,value
2018-12-14T00:00:31.120Z,10.08
2018-12-14T00:02:58.692Z,8.83
2018-12-14T00:05:29.435Z,9.48
2018-12-14T00:07:56.887Z,9.45
2018-12-14T00:10:24.351Z,9.03
2018-12-14T00:12:51.839Z,10.35
2018-12-14T00:15:22.619Z,9.73
2018-12-14T00:17:50.068Z,9.90
2018-12-14T00:20:17.587Z,9.33
2018-12-14T00:22:45.038Z,9.70
2018-12-14T00:25:12.589Z,9.30
2018-12-14T00:27:40.060Z,9.53
2018-12-14T00:30:07.724Z,10.63
2018-12-14T00:32:35.158Z,8.80
2018-12-14T00:35:02.671Z,10.10
2018-12-14T00:37:33.416Z,9.23
2018-12-14T00:40:00.898Z,10.20
2018-12-14T00:42:28.344Z,9.93
2018-12-14T00:44:55.802Z,10.77
2018-12-14T00:47:26.460Z,9.13
2018-12-14T00:49:53.927Z,8.90
2018-12-14T00:52:21.371Z,8.93
2018-12-14T00:54:48.863Z,10.60
2018-12-14T00:57:19.807Z,9.60
2018-12-14T00:59:47.279Z,11.03
2018-12-14T01:02:20.218Z,10.80
2018-12-14T01:04:47.684Z,9.63
2018-12-14T01:07:18.466Z,10.28
2018-12-14T01:09:45.963Z,10.20
2018-12-14T01:12:13.409Z,11.00
2018-12-14T01:14:40.863Z,9.97
2018-12-14T01:17:11.475Z,9.87
2018-12-14T01:19:38.983Z,10.20
2018-12-14T01:22:06.432Z,9.85
2018-12-14T01:24:33.934Z,11.22
2018-12-14T01:27:04.431Z,8.00
2018-12-14T01:29:31.891Z,8.63
2018-12-14T01:31:59.400Z,10.72
2018-12-14T01:34:26.939Z,11.63
2018-12-14T01:36:58.015Z,10.35
2018-12-14T01:39:25.480Z,10.07
2018-12-14T01:42:04.685Z,10.40
2018-12-14T01:44:28.628Z,9.83
2018-12-14T01:46:59.327Z,9.38
2018-12-14T01:49:26.817Z,8.33
2018-12-14T01:51:54.323Z,9.70
2018-12-14T01:54:21.816Z,10.38
2018-12-14T01:56:52.291Z,9.90
2018-12-14T01:59:19.764Z,10.53
2018-12-14T02:01:47.309Z,11.33
2018-12-14T02:04:14.763Z,11.60
2018-12-14T02:06:45.284Z,10.75
2018-12-14T02:09:12.719Z,10.82
2018-12-14T02:11:40.232Z,10.03
2018-12-14T02:14:07.772Z,10.85
2018-12-14T02:16:38.402Z,10.18
2018-12-14T02:19:11.931Z,11.53
2018-12-14T02:21:45.516Z,10.10
2018-12-14T02:24:12.955Z,11.03
2018-12-14T02:26:43.641Z,6.63
2018-12-14T02:29:11.101Z,10.63
2018-12-14T02:31:38.566Z,12.07
2018-12-14T02:34:06.008Z,10.63
2018-12-14T02:36:36.826Z,10.93
2018-12-14T02:39:05.132Z,10.70
2018-12-14T02:41:32.617Z,11.63
2018-12-14T02:44:00.064Z,11.50
2018-12-14T02:46:31.138Z,11.20
2018-12-14T02:48:58.642Z,11.57
2018-12-14T02:51:26.148Z,11.50
2018-12-14T02:53:53.615Z,10.20
2018-12-14T02:56:24.906Z,11.17
2018-12-14T02:58:52.365Z,11.20
2018-12-14T03:01:19.852Z,11.08
2018-12-14T03:03:47.307Z,10.10
2018-12-14T03:06:17.868Z,10.47
2018-12-14T03:08:45.357Z,10.80
2018-12-14T03:11:12.809Z,10.55
2018-12-14T03:13:43.199Z,11.38
2018-12-14T03:16:14.507Z,11.43
2018-12-14T03:18:41.965Z,10.93
2018-12-14T03:21:09.430Z,10.70
2018-12-14T03:23:36.869Z,9.00
2018-12-14T03:26:07.783Z,11.07
2018-12-14T03:28:35.260Z,10.80
2018-12-14T03:31:02.705Z,8.80
2018-12-14T03:33:30.248Z,9.05
2018-12-14T03:36:00.699Z,10.20
2018-12-14T03:38:28.161Z,10.38
2018-12-14T03:40:55.618Z,9.97
2018-12-14T03:43:23.080Z,9.17
2018-12-14T03:45:53.667Z,11.00
2018-12-14T03:48:21.115Z,9.73
2018-12-14T03:50:48.580Z,9.20
2018-12-14T03:53:16.057Z,10.30
2018-12-14T03:55:46.524Z,10.73
2018-12-14T03:58:14.104Z,10.37
2018-12-14T04:00:41.636Z,11.00
2018-12-14T04:03:09.243Z,9.75
2018-12-14T04:05:39.843Z,10.97
2018-12-14T04:08:07.330Z,10.03
2018-12-14T04:10:34.875Z,11.03
2018-12-14T04:13:02.340Z,10.10
2018-12-14T04:15:33.639Z,10.10
2018-12-14T04:18:01.089Z,10.97
2018-12-14T04:20:28.590Z,10.83
2018-12-14T04:22:56.119Z,10.35
2018-12-14T04:25:29.281Z,9.75
2018-12-14T04:28:02.878Z,10.45
2018-12-14T04:30:30.330Z,11.43
2018-12-14T04:32:57.771Z,10.80
2018-12-14T04:35:28.452Z,11.73
2018-12-14T04:37:55.896Z,10.80
2018-12-14T04:40:23.381Z,11.35
2018-12-14T04:42:50.961Z,10.32
2018-12-14T04:45:21.391Z,11.30
2018-12-14T04:47:52.070Z,11.30
2018-12-14T04:50:23.070Z,11.20
2018-12-14T04:52:50.529Z,11.10
2018-12-14T04:55:20.921Z,11.07
2018-12-14T04:57:48.373Z,11.70
2018-12-14T05:00:15.840Z,11.20
2018-12-14T05:02:43.285Z,12.00
2018-12-14T05:05:11.595Z,11.20
2018-12-14T05:07:39.081Z,11.70
2018-12-14T05:10:06.663Z,12.25
2018-12-14T05:12:34.120Z,12.40
2018-12-14T05:15:01.585Z,11.90
2018-12-14T05:17:32.668Z,12.33
2018-12-14T05:20:00.104Z,11.87
2018-12-14T05:22:27.560Z,12.35
2018-12-14T05:24:55.003Z,12.03
2018-12-14T05:27:28.802Z,10.38
2018-12-14T05:30:02.409Z,11.83
2018-12-14T05:32:33.231Z,12.15
2018-12-14T05:35:03.935Z,11.25
2018-12-14T05:37:37.520Z,12.10
2018-12-14T05:40:08.579Z,11.23
2018-12-14T05:42:36.035Z,11.53
2018-12-14T05:45:03.727Z,11.37
2018-12-14T05:47:34.811Z,11.13
2018-12-14T05:50:02.296Z,12.30
2018-12-14T05:52:32.957Z,12.18
2018-12-14T05:55:00.466Z,11.88
2018-12-14T05:57:30.965Z,12.87
2018-12-14T06:00:05.661Z,11.22
2018-12-14T06:02:36.045Z,11.88
2018-12-14T06:05:03.868Z,12.33
2018-12-14T06:07:34.247Z,12.20
2018-12-14T06:10:01.725Z,10.93
2018-12-14T06:12:29.252Z,11.67
2018-12-14T06:14:56.695Z,11.57
2018-12-14T06:17:27.158Z,13.27
2018-12-14T06:19:54.712Z,11.90
2018-12-14T06:22:22.159Z,11.63
2018-12-14T06:24:49.598Z,11.93
2018-12-14T06:27:20.072Z,11.57
2018-12-14T06:29:47.511Z,11.67
2018-12-14T06:32:15.015Z,11.93
2018-12-14T06:34:42.475Z,11.12
2018-12-14T06:37:13.395Z,12.07
2018-12-14T06:39:40.852Z,12.03
2018-12-14T06:42:08.523Z,10.57
2018-12-14T06:44:35.967Z,12.07
2018-12-14T06:47:07.038Z,12.53
2018-12-14T06:49:34.495Z,11.90
2018-12-14T06:52:01.976Z,12.25
2018-12-14T06:54:29.433Z,11.60
2018-12-14T06:57:00.188Z,12.73
2018-12-14T06:59:27.645Z,12.60
2018-12-14T07:07:21.783Z,13.10
2018-12-14T07:09:49.259Z,13.03
2018-12-14T07:12:16.800Z,13.47
2018-12-14T07:14:44.244Z,12.90
2018-12-14T07:17:15.151Z,12.83
2018-12-14T07:19:42.634Z,13.30
2018-12-14T07:22:10.057Z,12.80
2018-12-14T07:24:37.523Z,12.93
2018-12-14T07:27:08.007Z,11.47
2018-12-14T07:29:35.495Z,13.18
2018-12-14T07:32:02.945Z,12.73
2018-12-14T07:34:30.387Z,12.27
2018-12-14T07:37:01.280Z,12.33
2018-12-14T07:39:28.741Z,12.37
2018-12-14T07:41:56.175Z,11.60
2018-12-14T07:44:23.676Z,12.00
2018-12-14T07:46:54.391Z,12.05
2018-12-14T07:49:21.876Z,12.57
2018-12-14T07:51:49.316Z,12.73
2018-12-14T07:54:16.767Z,13.80
2018-12-14T07:56:47.581Z,12.43
2018-12-14T07:59:15.080Z,12.23
2018-12-14T08:01:42.561Z,12.37
2018-12-14T08:04:10.010Z,11.40
2018-12-14T08:06:43.273Z,11.80
2018-12-14T08:09:16.919Z,12.23
2018-12-14T08:11:44.395Z,12.30
2018-12-14T08:14:11.879Z,10.73
2018-12-14T08:16:42.632Z,12.40
2018-12-14T08:19:10.093Z,12.13
2018-12-14T08:21:37.532Z,12.07
2018-12-14T08:24:05.010Z,12.73
2018-12-14T08:26:35.869Z,11.80
2018-12-14T08:29:03.353Z,12.23
2018-12-14T08:31:30.791Z,9.50
2018-12-14T08:33:58.247Z,12.43
2018-12-14T08:36:29.108Z,12.00
2018-12-14T08:38:56.611Z,12.37
2018-12-14T08:41:24.084Z,12.20
2018-12-14T08:43:51.579Z,11.70
2018-12-14T08:46:22.170Z,10.13
2018-12-14T08:48:49.636Z,11.40
2018-12-14T08:51:17.315Z,10.90
2018-12-14T08:53:44.793Z,12.23
2018-12-14T08:56:15.369Z,12.67
2018-12-14T08:58:42.851Z,12.60
2018-12-14T09:01:10.281Z,12.57
2018-12-14T09:03:37.732Z,13.27
2018-12-14T09:06:08.520Z,11.77
2018-12-14T09:08:35.964Z,12.80
2018-12-14T09:11:03.452Z,12.00
2018-12-14T09:13:30.908Z,12.03
2018-12-14T09:16:02.116Z,11.43
2018-12-14T09:18:29.560Z,12.73
2018-12-14T09:21:00.979Z,13.10
2018-12-14T09:23:26.451Z,12.80
2018-12-14T09:25:57.343Z,13.10
2018-12-14T09:28:24.800Z,12.88
2018-12-14T09:30:52.251Z,12.53
2018-12-14T09:33:19.751Z,12.07
2018-12-14T09:35:50.468Z,11.83
2018-12-14T09:38:17.940Z,13.00
2018-12-14T09:40:45.407Z,13.67
2018-12-14T09:43:12.844Z,12.40
2018-12-14T09:45:43.599Z,12.10
2018-12-14T09:48:11.047Z,12.05
2018-12-14T09:50:38.507Z,13.10
2018-12-14T09:53:06.006Z,12.47
2018-12-14T09:55:36.705Z,12.70
2018-12-14T09:58:04.160Z,12.25
2018-12-14T10:00:31.616Z,12.47
2018-12-14T10:02:59.104Z,13.25
2018-12-14T10:05:29.720Z,11.70
2018-12-14T10:07:57.164Z,11.50
2018-12-14T10:10:24.644Z,12.40
2018-12-14T10:12:52.104Z,11.70
2018-12-14T10:15:22.472Z,13.27
2018-12-14T10:17:49.907Z,12.33
2018-12-14T10:20:17.388Z,12.40
2018-12-14T10:22:44.863Z,12.85
2018-12-14T10:25:13.188Z,12.57
2018-12-14T10:27:40.624Z,12.07
2018-12-14T10:30:09.141Z,12.27
2018-12-14T10:32:36.579Z,12.90
2018-12-14T10:35:07.275Z,12.20
2018-12-14T10:37:34.715Z,13.27
2018-12-14T10:40:02.215Z,13.10
2018-12-14T10:42:29.647Z,13.67
2018-12-14T10:44:57.099Z,12.33
2018-12-14T10:47:28.131Z,11.53
2018-12-14T10:49:55.576Z,12.77
2018-12-14T10:52:23.020Z,12.30
2018-12-14T10:54:50.534Z,12.27
2018-12-14T10:57:21.177Z,12.70
2018-12-14T10:59:48.608Z,12.70
2018-12-14T11:02:16.084Z,13.70
2018-12-14T11:04:43.533Z,12.87
2018-12-14T11:07:13.999Z,12.67
2018-12-14T11:09:41.474Z,12.50
2018-12-14T11:12:08.939Z,11.47
2018-12-14T11:14:36.376Z,13.17
2018-12-14T11:17:06.758Z,12.40
2018-12-14T11:19:34.193Z,11.53
2018-12-14T11:22:01.721Z,12.60
2018-12-14T11:24:29.182Z,12.47
2018-12-14T11:26:59.735Z,10.90
2018-12-14T11:29:27.195Z,11.87
2018-12-14T11:31:55.475Z,12.93
2018-12-14T11:34:22.899Z,12.73
2018-12-14T11:36:54.115Z,13.40
2018-12-14T11:39:21.552Z,12.50
2018-12-14T11:41:49.136Z,11.77
2018-12-14T11:44:20.619Z,12.83
2018-12-14T11:46:48.923Z,12.67
2018-12-14T11:49:16.355Z,12.87
2018-12-14T11:51:43.803Z,12.43
2018-12-14T11:54:11.244Z,12.40
2018-12-14T11:56:41.616Z,11.83
2018-12-14T11:59:09.052Z,11.67
2018-12-14T12:01:36.496Z,13.33
2018-12-14T12:04:03.946Z,13.63
2018-12-14T12:06:34.907Z,12.90
2018-12-14T12:09:02.349Z,13.30
2018-12-14T12:11:29.801Z,13.77
2018-12-14T12:13:57.238Z,12.70
2018-12-14T12:16:28.150Z,12.80
2018-12-14T12:18:55.564Z,12.67
2018-12-14T12:21:23.048Z,12.57
2018-12-14T12:23:55.324Z,12.03
2018-12-14T12:26:23.293Z,11.60
2018-12-14T12:28:50.731Z,12.80
2018-12-14T12:31:18.197Z,12.57
2018-12-14T12:33:45.631Z,12.67
2018-12-14T12:36:16.123Z,10.90
2018-12-14T12:38:43.552Z,12.17
2018-12-14T12:41:11.044Z,13.13
2018-12-14T12:43:38.481Z,12.27
2018-12-14T12:46:09.519Z,11.87
2018-12-14T12:48:36.992Z,12.87
2018-12-14T12:51:04.497Z,12.63
2018-12-14T12:53:31.940Z,11.88
2018-12-14T12:56:02.352Z,12.60
2018-12-14T12:58:29.800Z,12.90
2018-12-14T13:00:57.352Z,12.20
2018-12-14T13:03:24.792Z,12.30
2018-12-14T13:05:55.545Z,12.67
2018-12-14T13:08:23.015Z,11.43
2018-12-14T13:10:50.464Z,10.03
2018-12-14T13:13:17.930Z,11.00
2018-12-14T13:15:48.885Z,11.80
2018-12-14T13:18:16.354Z,11.83
2018-12-14T13:20:43.805Z,12.43
2018-12-14T13:23:11.319Z,10.90
2018-12-14T13:25:41.968Z,11.83
2018-12-14T13:28:09.535Z,11.50
2018-12-14T13:30:37.348Z,12.07
2018-12-14T13:33:04.998Z,11.57
2018-12-14T13:35:35.968Z,11.33
2018-12-14T13:38:06.495Z,11.40
2018-12-14T13:40:34.038Z,11.20
2018-12-14T13:43:01.595Z,11.30
2018-12-14T13:45:32.963Z,10.50
2018-12-14T13:48:00.529Z,14.30
2018-12-14T13:50:28.027Z,11.17
2018-12-14T13:52:55.512Z,11.30
2018-12-14T13:55:29.632Z,11.37
2018-12-14T13:57:57.093Z,12.40
2018-12-14T14:00:24.893Z,11.83
2018-12-14T14:02:52.405Z,11.23
2018-12-14T14:05:23.482Z,12.20
2018-12-14T14:07:50.941Z,13.60
2018-12-14T14:10:19.804Z,11.17
2018-12-14T14:12:47.307Z,11.60
2018-12-14T14:15:20.791Z,11.25
2018-12-14T14:17:44.879Z,12.58
2018-12-14T14:20:12.914Z,11.70
2018-12-14T14:22:40.438Z,12.35
2018-12-14T14:25:07.934Z,12.43
2018-12-14T14:27:35.549Z,11.90
2018-12-14T14:30:03.096Z,12.63
2018-12-14T14:32:30.568Z,12.50
2018-12-14T14:34:58.048Z,13.33
2018-12-14T14:37:29.235Z,12.23
2018-12-14T14:39:56.717Z,12.20
2018-12-14T14:42:24.251Z,12.40
2018-12-14T14:44:51.723Z,11.40
2018-12-14T14:47:25.182Z,12.80
2018-12-14T14:49:52.622Z,10.80
2018-12-14T14:52:20.132Z,12.00
2018-12-14T14:54:47.756Z,10.80
2018-12-14T14:57:21.191Z,10.30
2018-12-14T14:59:48.672Z,11.20
2018-12-14T15:02:16.151Z,10.82
2018-12-14T15:04:43.593Z,10.73
2018-12-14T15:07:14.412Z,11.97
2018-12-14T15:09:47.791Z,11.18
2018-12-14T15:12:15.255Z,10.63
2018-12-14T15:14:42.736Z,11.53
2018-12-14T15:17:13.288Z,12.23
2018-12-14T15:19:40.746Z,11.97
2018-12-14T15:22:08.191Z,11.17
2018-12-14T15:24:35.655Z,11.43
2018-12-14T15:27:06.232Z,10.97
2018-12-14T15:29:33.718Z,11.53
2018-12-14T15:32:01.476Z,11.90
2018-12-14T15:34:28.945Z,11.77
2018-12-14T15:36:59.928Z,11.53
2018-12-14T15:39:27.413Z,11.47
2018-12-14T15:41:54.860Z,10.20
2018-12-14T15:44:22.340Z,12.10
2018-12-14T15:46:53.320Z,12.03
2018-12-14T15:52:13.503Z,11.88
2018-12-14T15:54:40.975Z,12.50
2018-12-14T15:57:08.417Z,12.67
2018-12-14T15:59:39.709Z,12.23
2018-12-14T16:02:13.251Z,12.53
2018-12-14T16:04:40.702Z,11.80
2018-12-14T16:07:11.463Z,13.67
2018-12-14T16:09:41.888Z,12.50
2018-12-14T16:12:09.367Z,12.90
2018-12-14T16:14:36.856Z,12.47
2018-12-14T16:17:04.333Z,12.40
2018-12-14T16:19:34.819Z,12.47
2018-12-14T16:22:02.337Z,12.53
2018-12-14T16:24:29.910Z,12.87
2018-12-14T16:26:57.415Z,14.17
2018-12-14T16:29:31.408Z,13.53
2018-12-14T16:32:05.072Z,12.80
2018-12-14T16:34:38.699Z,13.13
2018-12-14T16:37:06.190Z,13.00
2018-12-14T16:39:36.991Z,12.83
2018-12-14T16:42:10.306Z,12.82
2018-12-14T16:44:41.509Z,11.43
2018-12-14T16:47:08.946Z,12.47
2018-12-14T16:49:39.507Z,11.90
2018-12-14T16:52:06.984Z,12.53
2018-12-14T16:54:34.517Z,12.03
2018-12-14T16:57:01.977Z,14.00
2018-12-14T16:59:33.260Z,12.07
2018-12-14T17:02:00.788Z,11.53
2018-12-14T17:04:28.262Z,12.80
2018-12-14T17:06:55.738Z,10.77
2018-12-14T17:09:26.209Z,11.10
2018-12-14T17:11:53.646Z,11.10
2018-12-14T17:14:21.166Z,12.20
2018-12-14T17:16:48.608Z,11.08
2018-12-14T17:19:19.395Z,12.10
2018-12-14T17:21:46.838Z,12.23
2018-12-14T17:24:14.287Z,10.93
2018-12-14T17:26:41.794Z,11.95
2018-12-14T17:29:12.467Z,11.43
2018-12-14T17:31:39.908Z,13.07
2018-12-14T17:34:07.485Z,12.85
2018-12-14T17:36:34.915Z,12.63
2018-12-14T17:39:02.361Z,12.53
2018-12-14T17:41:29.792Z,13.03
2018-12-14T17:43:57.862Z,13.30
2018-12-14T17:46:25.286Z,12.97
2018-12-14T17:48:52.774Z,12.63
2018-12-14T17:51:23.185Z,12.37
2018-12-14T17:53:50.643Z,12.40
2018-12-14T17:56:18.087Z,11.83
2018-12-14T17:58:45.551Z,13.83
2018-12-14T18:01:16.254Z,13.90
2018-12-14T18:03:43.716Z,15.40
2018-12-14T18:06:11.171Z,13.37
2018-12-14T18:08:38.611Z,13.67
2018-12-14T18:11:09.168Z,14.07
2018-12-14T18:13:36.643Z,14.83
2018-12-14T18:16:04.311Z,16.67
2018-12-14T18:18:31.777Z,13.37
2018-12-14T18:21:02.847Z,12.47
2018-12-14T18:23:30.295Z,12.67
2018-12-14T18:25:57.752Z,12.03
2018-12-14T18:28:25.187Z,14.07
2018-12-14T18:30:58.906Z,14.17
2018-12-14T18:33:26.364Z,12.33
2018-12-14T18:35:53.855Z,12.73
2018-12-14T18:38:21.347Z,11.83
2018-12-14T18:48:20.693Z,12.33
2018-12-14T18:50:51.474Z,11.80
2018-12-14T18:53:18.906Z,11.00
2018-12-14T18:55:47.226Z,11.83
2018-12-14T18:58:15.334Z,11.88
2018-12-14T19:00:46.695Z,10.70
2018-12-14T19:03:14.131Z,10.85
2018-12-14T19:05:42.357Z,12.07
2018-12-14T19:08:09.791Z,11.20
2018-12-14T19:10:40.994Z,12.47
2018-12-14T19:13:09.654Z,12.78
2018-12-14T19:15:37.511Z,12.03
2018-12-14T19:18:04.982Z,12.07
2018-12-14T19:20:36.200Z,12.25
2018-12-14T19:23:04.294Z,11.70
2018-12-14T19:25:33.642Z,12.03
2018-12-14T19:28:01.057Z,11.48
2018-12-14T19:30:34.971Z,11.87
2018-12-14T19:33:02.956Z,12.15
2018-12-14T19:35:30.427Z,12.67
2018-12-14T19:37:57.872Z,11.07
2018-12-14T19:40:29.707Z,12.07
2018-12-14T19:42:57.851Z,10.93
2018-12-14T19:45:25.321Z,10.87
2018-12-14T19:47:52.779Z,11.10
2018-12-14T19:50:26.392Z,11.23
2018-12-14T19:52:53.824Z,10.07
2018-12-14T19:55:21.847Z,10.73
2018-12-14T19:57:50.083Z,10.65
2018-12-14T20:00:20.491Z,10.80
2018-12-14T20:02:49.695Z,11.20
2018-12-14T20:05:17.479Z,11.20
2018-12-14T20:07:44.916Z,10.60
2018-12-14T20:10:15.422Z,9.97
2018-12-14T20:12:42.859Z,11.27
2018-12-14T20:15:10.426Z,11.37
2018-12-14T20:17:37.926Z,12.73
2018-12-14T20:20:09.271Z,11.40
2018-12-14T20:22:36.717Z,10.68
2018-12-14T20:25:05.410Z,11.40
2018-12-14T20:27:33.834Z,11.33
2018-12-14T20:30:07.348Z,9.67
2018-12-14T20:32:34.800Z,11.07
2018-12-14T20:35:02.393Z,10.93
2018-12-14T20:37:29.843Z,11.13
2018-12-14T20:40:01.255Z,10.53
2018-12-14T20:42:39.542Z,10.63
2018-12-14T20:45:14.146Z,11.22
2018-12-14T20:47:41.647Z,10.82
2018-12-14T20:50:13.374Z,11.47
2018-12-14T20:52:44.679Z,9.70
2018-12-14T20:55:12.239Z,13.00
2018-12-14T20:57:39.679Z,11.47
2018-12-14T21:00:10.335Z,16.15
2018-12-14T21:02:37.805Z,11.60
2018-12-14T21:05:05.550Z,12.67
2018-12-14T21:07:37.908Z,10.93
2018-12-14T21:10:13.055Z,10.67
2018-12-14T21:12:43.504Z,10.28
2018-12-14T21:15:16.731Z,10.57
2018-12-14T21:17:44.168Z,12.50
2018-12-14T21:20:22.068Z,10.80
2018-12-14T21:22:49.535Z,10.87
2018-12-14T21:25:17.001Z,10.63
2018-12-14T21:27:44.476Z,11.73
2018-12-14T21:30:15.688Z,9.63
2018-12-14T21:32:43.132Z,10.27
2018-12-14T21:35:10.610Z,10.17
2018-12-14T21:37:38.056Z,11.00
2018-12-14T21:40:08.897Z,11.20
2018-12-14T21:42:36.339Z,10.07
2018-12-14T21:45:04.853Z,10.27
2018-12-14T21:47:32.290Z,10.30
2018-12-14T21:50:04.035Z,10.80
2018-12-14T21:52:31.478Z,12.05
2018-12-14T21:54:58.968Z,11.10
2018-12-14T21:57:26.425Z,11.53
2018-12-14T21:59:57.386Z,10.78
2018-12-14T22:02:24.806Z,9.37
2018-12-14T22:04:52.273Z,10.17
2018-12-14T22:07:19.705Z,14.27
2018-12-14T22:09:51.008Z,12.53
2018-12-14T22:12:18.469Z,11.70
2018-12-14T22:14:46.017Z,18.47
2018-12-14T22:17:13.459Z,18.00
2018-12-14T22:19:43.955Z,11.87
2018-12-14T22:22:11.403Z,12.03
2018-12-14T22:24:38.862Z,11.47
2018-12-14T22:27:06.320Z,12.10
2018-12-14T22:29:37.231Z,10.97
2018-12-14T22:32:04.694Z,10.43
2018-12-14T22:34:32.154Z,11.35
2018-12-14T22:37:05.907Z,9.47
2018-12-14T22:39:36.823Z,10.28
2018-12-14T22:42:07.403Z,10.47
2018-12-14T22:44:40.922Z,10.43
2018-12-14T22:47:08.372Z,10.53
2018-12-14T22:49:42.177Z,10.07
2018-12-14T22:52:09.624Z,11.28
2018-12-14T22:54:37.149Z,10.37
2018-12-14T22:57:04.620Z,10.98
2018-12-14T22:59:35.422Z,11.55
2018-12-14T23:02:02.946Z,12.50
2018-12-14T23:04:30.404Z,13.00
2018-12-14T23:07:03.754Z,12.87
2018-12-14T23:09:34.424Z,13.23
2018-12-14T23:12:07.704Z,12.93
2018-12-14T23:14:35.187Z,12.30
2018-12-14T23:17:02.688Z,10.78
2018-12-14T23:19:36.272Z,11.30
2018-12-14T23:22:03.803Z,11.63
2018-12-14T23:24:31.311Z,11.57
2018-12-14T23:26:58.768Z,11.90
2018-12-14T23:29:29.768Z,12.53
2018-12-14T23:32:00.567Z,13.20
2018-12-14T23:34:28.033Z,12.55
2018-12-14T23:36:55.478Z,12.20
2018-12-14T23:39:29.554Z,12.70
2018-12-14T23:41:56.982Z,13.10
2018-12-14T23:44:24.415Z,12.70
2018-12-14T23:46:51.875Z,10.03
2018-12-14T23:49:22.865Z,11.17
2018-12-14T23:51:56.665Z,11.53
2018-12-14T23:54:30.211Z,12.43
2018-12-14T23:57:01.248Z,12.78
2018-12-14T23:59:32.555Z,12.53
